Time;durP1;ratioP1;P1;durP2;ratioP2;P2;SDS_P1;SDS_P2;PMS_P1;PMS_P2;Temp;Humidity;BMP_temperature;BMP_pressure;BME280_temperature;BME280_humidity;BME280_pressure;Samples;Min_cycle;Max_cycle;Signal;HPM_P1;HPM_P2
2022/09/11 00:01:32;;;;;;;6.60;5.07;;;13.50;99.90;;;;;;5115762;28;20192;-74
2022/09/11 00:03:59;;;;;;;7.83;5.43;;;13.60;99.90;;;;;;5115579;28;20200;-74
2022/09/11 00:06:26;;;;;;;6.70;5.30;;;13.60;99.90;;;;;;5115759;28;20196;-74
2022/09/11 00:08:58;;;;;;;6.77;5.07;;;13.50;99.90;;;;;;5115714;28;20253;-74
2022/09/11 00:11:25;;;;;;;5.57;4.57;;;13.60;99.90;;;;;;5115580;28;20199;-74
2022/09/11 00:13:53;;;;;;;6.67;5.03;;;13.60;99.90;;;;;;5115598;28;20231;-75
2022/09/11 00:16:22;;;;;;;7.17;4.97;;;13.60;99.90;;;;;;5115401;28;20196;-74
2022/09/11 00:18:51;;;;;;;6.87;4.73;;;13.60;99.90;;;;;;5115514;28;20747;-74
2022/09/11 00:21:18;;;;;;;7.83;5.23;;;13.60;99.90;;;;;;5115689;28;20249;-74
2022/09/11 00:23:45;;;;;;;5.57;4.80;;;13.60;99.90;;;;;;5115228;28;20643;-74
2022/09/11 00:26:12;;;;;;;5.63;4.73;;;13.60;99.90;;;;;;5115335;28;20724;-74
2022/09/11 00:28:38;;;;;;;7.40;4.60;;;13.60;99.90;;;;;;5115305;28;20260;-74
2022/09/11 00:31:07;;;;;;;6.87;5.17;;;13.60;99.90;;;;;;5114316;28;20708;-74
2022/09/11 00:33:35;;;;;;;5.73;4.60;;;13.60;99.90;;;;;;5115274;28;20192;-74
2022/09/11 00:36:06;;;;;;;5.30;4.83;;;13.60;99.90;;;;;;5115298;28;20191;-74
2022/09/11 00:38:35;;;;;;;6.63;4.90;;;13.50;99.90;;;;;;5115057;28;20630;-74
2022/09/11 00:41:03;;;;;;;5.93;4.90;;;13.60;99.90;;;;;;5115018;28;20196;-74
2022/09/11 00:43:54;;;;;;;5.80;5.20;;;13.60;99.90;;;;;;5114873;28;20200;-74
2022/09/11 00:46:21;;;;;;;6.60;5.23;;;13.60;99.90;;;;;;5115162;28;20214;-75
2022/09/11 00:48:49;;;;;;;5.63;5.00;;;13.60;99.90;;;;;;5114822;28;20204;-74
2022/09/11 00:51:20;;;;;;;7.70;5.10;;;13.60;99.90;;;;;;5115069;28;20195;-73
2022/09/11 00:53:49;;;;;;;5.43;4.93;;;13.60;99.90;;;;;;5114763;28;20256;-73
2022/09/11 00:56:16;;;;;;;6.97;5.10;;;13.60;99.90;;;;;;5114560;28;20231;-74
2022/09/11 00:58:47;;;;;;;7.53;5.70;;;13.60;99.90;;;;;;5114699;28;20195;-74
2022/09/11 01:01:14;;;;;;;7.03;5.47;;;13.60;99.90;;;;;;5115087;28;20222;-74
2022/09/11 01:03:42;;;;;;;7.63;5.90;;;13.50;99.90;;;;;;5114626;28;20287;-73
2022/09/11 01:06:09;;;;;;;7.77;5.60;;;13.60;99.90;;;;;;5114539;28;20199;-73
2022/09/11 01:08:37;;;;;;;6.00;5.40;;;13.50;99.90;;;;;;5114325;28;20199;-73
2022/09/11 01:11:19;;;;;;;8.30;5.73;;;13.50;99.90;;;;;;5114626;28;20380;-73
2022/09/11 01:13:54;;;;;;;7.33;5.63;;;13.50;99.90;;;;;;5114640;28;20203;-73
2022/09/11 01:16:29;;;;;;;8.97;6.00;;;13.50;99.90;;;;;;5114352;28;20195;-73
2022/09/11 01:19:02;;;;;;;9.37;6.30;;;13.50;99.90;;;;;;5114096;28;20244;-73
2022/09/11 01:21:53;;;;;;;8.53;6.30;;;13.50;99.90;;;;;;5114725;28;20196;-74
2022/09/11 01:24:34;;;;;;;7.37;6.73;;;13.40;99.90;;;;;;5114165;28;20246;-74
2022/09/11 01:27:26;;;;;;;8.60;6.23;;;13.30;99.90;;;;;;5114454;28;20731;-73
2022/09/11 01:29:58;;;;;;;9.13;6.67;;;13.30;99.90;;;;;;5114255;28;20283;-73
2022/09/11 01:32:35;;;;;;;10.63;7.27;;;13.30;99.90;;;;;;5114096;28;20202;-73
2022/09/11 01:35:07;;;;;;;11.37;7.13;;;13.40;99.90;;;;;;5113918;28;20669;-73
2022/09/11 01:37:40;;;;;;;8.83;6.80;;;13.30;99.90;;;;;;5113792;28;20203;-74
2022/09/11 01:40:16;;;;;;;11.93;7.50;;;13.20;99.90;;;;;;5114011;28;20280;-72
2022/09/11 01:42:49;;;;;;;14.13;8.30;;;13.20;99.90;;;;;;5114045;28;20196;-73
2022/09/11 01:45:16;;;;;;;10.70;7.80;;;13.20;99.90;;;;;;5113930;28;20199;-72
2022/09/11 01:47:45;;;;;;;9.87;8.20;;;13.20;99.90;;;;;;5113682;28;20196;-73
2022/09/11 01:50:14;;;;;;;11.83;8.37;;;13.10;99.90;;;;;;5113405;28;20203;-73
2022/09/11 01:52:46;;;;;;;9.50;8.47;;;13.20;99.90;;;;;;5113638;28;20203;-73
2022/09/11 01:55:17;;;;;;;10.50;8.77;;;13.20;99.90;;;;;;5113528;28;20231;-73
2022/09/11 01:57:51;;;;;;;15.30;9.50;;;13.20;99.90;;;;;;5113662;28;20202;-73
2022/09/11 02:00:18;;;;;;;13.77;9.37;;;13.20;99.90;;;;;;5113553;28;20751;-72
2022/09/11 02:02:49;;;;;;;13.47;9.43;;;13.20;99.90;;;;;;5113447;28;20245;-69
2022/09/11 02:05:20;;;;;;;11.33;8.73;;;13.20;99.90;;;;;;5113624;28;20191;-68
2022/09/11 02:07:52;;;;;;;10.43;8.27;;;13.20;99.90;;;;;;5113790;28;20196;-69
2022/09/11 02:10:23;;;;;;;10.23;8.60;;;13.20;99.90;;;;;;5113597;28;20199;-69
2022/09/11 02:12:56;;;;;;;8.03;7.23;;;13.20;99.90;;;;;;5113686;28;20651;-70
2022/09/11 02:15:25;;;;;;;9.13;7.53;;;13.20;99.90;;;;;;5113510;28;20184;-70
2022/09/11 02:18:00;;;;;;;9.20;8.30;;;13.20;99.90;;;;;;5113206;28;20659;-71
2022/09/11 02:20:27;;;;;;;9.23;8.10;;;13.30;99.90;;;;;;5113253;28;20222;-71
2022/09/11 02:22:54;;;;;;;11.97;8.73;;;13.30;99.90;;;;;;5113140;28;20200;-71
2022/09/11 02:25:20;;;;;;;9.00;8.20;;;13.30;99.90;;;;;;5113234;28;20192;-71
2022/09/11 02:27:47;;;;;;;11.17;10.07;;;13.30;99.90;;;;;;5113125;28;20196;-71
2022/09/11 02:30:15;;;;;;;11.50;10.23;;;13.30;99.90;;;;;;5113420;28;20199;-71
2022/09/11 02:32:44;;;;;;;15.40;13.90;;;13.30;99.90;;;;;;5113589;28;20271;-72
2022/09/11 02:35:11;;;;;;;22.00;14.10;;;13.40;99.90;;;;;;5113259;28;20272;-72
2022/09/11 02:37:49;;;;;;;16.93;15.23;;;13.40;99.90;;;;;;5113059;28;20651;-72
2022/09/11 02:40:30;;;;;;;19.67;17.03;;;13.30;99.90;;;;;;5113025;28;20272;-72
2022/09/11 02:43:24;;;;;;;22.03;19.67;;;13.40;99.90;;;;;;5113183;28;20252;-72
2022/09/11 02:46:03;;;;;;;24.87;20.23;;;13.40;99.90;;;;;;5113123;28;20324;-72
2022/09/11 02:48:42;;;;;;;24.43;20.37;;;13.50;99.90;;;;;;5113021;28;20196;-72
2022/09/11 02:51:17;;;;;;;25.53;22.27;;;13.50;99.90;;;;;;5113214;28;20200;-72
2022/09/11 02:53:52;;;;;;;27.13;23.30;;;13.50;99.90;;;;;;5114076;28;20191;-72
2022/09/11 02:56:28;;;;;;;29.53;23.57;;;13.50;99.90;;;;;;5116956;27;20778;-72
2022/09/11 02:58:58;;;;;;;30.57;24.97;;;13.50;99.90;;;;;;5117021;28;20206;-72
2022/09/11 03:01:26;;;;;;;28.93;25.73;;;13.50;99.90;;;;;;5116909;28;20702;-72
2022/09/11 03:03:53;;;;;;;32.57;27.53;;;13.50;99.90;;;;;;5117079;28;20199;-72
2022/09/11 03:06:21;;;;;;;35.23;27.17;;;13.50;99.90;;;;;;5117064;28;20196;-72
2022/09/11 03:08:48;;;;;;;30.97;26.53;;;13.50;99.90;;;;;;5116886;28;20200;-73
2022/09/11 03:11:16;;;;;;;32.90;27.57;;;13.50;99.90;;;;;;5116710;28;20651;-72
2022/09/11 03:13:44;;;;;;;31.07;27.23;;;13.50;99.90;;;;;;5116642;27;20196;-72
2022/09/11 03:16:12;;;;;;;31.63;26.93;;;13.50;99.90;;;;;;5116793;28;20605;-72
2022/09/11 03:18:40;;;;;;;33.80;28.03;;;13.50;99.90;;;;;;5116735;28;20202;-72
2022/09/11 03:21:07;;;;;;;31.87;26.37;;;13.50;99.90;;;;;;5116559;28;20300;-72
2022/09/11 03:23:33;;;;;;;31.03;26.83;;;13.50;99.90;;;;;;5116521;28;20199;-72
2022/09/11 03:26:00;;;;;;;34.10;26.87;;;13.50;99.90;;;;;;5116449;28;20195;-72
2022/09/11 03:28:27;;;;;;;34.67;28.87;;;13.50;99.90;;;;;;5116602;28;20257;-72
2022/09/11 03:30:53;;;;;;;36.13;28.43;;;13.60;99.90;;;;;;5116525;27;20202;-72
2022/09/11 03:33:21;;;;;;;33.03;28.43;;;13.60;99.90;;;;;;5116420;28;20243;-73
2022/09/11 03:35:49;;;;;;;36.47;29.47;;;13.60;99.90;;;;;;5116207;28;20202;-72
2022/09/11 03:38:16;;;;;;;33.20;27.67;;;13.60;99.90;;;;;;5116283;28;20192;-72
2022/09/11 03:40:43;;;;;;;33.93;29.30;;;13.60;99.90;;;;;;5116080;28;20230;-72
2022/09/11 03:43:11;;;;;;;32.20;27.70;;;13.60;99.90;;;;;;5116119;28;20563;-72
2022/09/11 03:45:38;;;;;;;37.03;29.27;;;13.60;99.90;;;;;;5116238;28;20192;-72
2022/09/11 03:48:05;;;;;;;33.13;26.90;;;13.60;99.90;;;;;;5116203;28;20195;-72
2022/09/11 03:50:32;;;;;;;28.50;24.57;;;13.60;99.90;;;;;;5116133;28;20231;-71
2022/09/11 03:53:00;;;;;;;29.87;25.50;;;13.60;99.90;;;;;;5115988;28;20253;-71
2022/09/11 03:55:27;;;;;;;29.63;24.50;;;13.60;99.90;;;;;;5115918;28;20224;-71
2022/09/11 03:57:54;;;;;;;30.03;25.13;;;13.60;99.90;;;;;;5115870;28;20662;-71
2022/09/11 04:00:21;;;;;;;34.60;26.53;;;13.60;99.90;;;;;;5115902;28;20220;-70
2022/09/11 04:02:48;;;;;;;32.53;27.70;;;13.60;99.90;;;;;;5115888;28;20241;-70
2022/09/11 04:05:15;;;;;;;34.80;28.47;;;13.60;99.90;;;;;;5114557;28;20195;-71
2022/09/11 04:07:41;;;;;;;35.87;29.27;;;13.60;99.90;;;;;;5115670;28;20195;-71
2022/09/11 04:10:10;;;;;;;37.53;27.30;;;13.60;99.90;;;;;;5115848;28;20196;-71
2022/09/11 04:12:36;;;;;;;40.20;28.10;;;13.60;99.90;;;;;;5115736;28;20198;-71
2022/09/11 04:15:03;;;;;;;34.30;26.97;;;13.60;99.90;;;;;;5115508;28;20763;-71
2022/09/11 04:17:30;;;;;;;36.10;26.57;;;13.60;99.90;;;;;;5115603;28;20195;-71
2022/09/11 04:19:57;;;;;;;34.83;25.50;;;13.60;99.90;;;;;;5115470;28;20257;-71
2022/09/11 04:22:25;;;;;;;32.13;27.43;;;13.60;99.90;;;;;;5115348;28;20196;-72
2022/09/11 04:24:51;;;;;;;32.80;26.23;;;13.60;99.90;;;;;;5115609;28;20217;-71
2022/09/11 04:27:20;;;;;;;32.37;25.57;;;13.60;99.90;;;;;;5115442;28;20202;-71
2022/09/11 04:29:46;;;;;;;34.13;26.13;;;13.60;99.90;;;;;;5115406;28;20195;-71
2022/09/11 04:32:13;;;;;;;32.00;24.73;;;13.60;99.90;;;;;;5115381;28;20229;-72
2022/09/11 04:34:40;;;;;;;32.03;25.57;;;13.60;99.90;;;;;;5115249;28;20196;-72
2022/09/11 04:37:07;;;;;;;31.90;25.27;;;13.60;99.90;;;;;;5115175;28;20272;-71
2022/09/11 04:39:34;;;;;;;33.60;25.80;;;13.60;99.90;;;;;;5115306;28;20208;-72
2022/09/11 04:42:03;;;;;;;34.10;24.73;;;13.60;99.90;;;;;;5114883;28;20701;-72
2022/09/11 04:44:31;;;;;;;31.90;25.83;;;13.60;99.90;;;;;;5114967;28;20599;-72
2022/09/11 04:46:58;;;;;;;33.17;25.77;;;13.60;99.90;;;;;;5115066;28;20200;-72
2022/09/11 04:49:24;;;;;;;32.13;24.87;;;13.60;99.90;;;;;;5114844;28;20204;-72
2022/09/11 04:51:51;;;;;;;34.10;25.77;;;13.60;99.90;;;;;;5114968;28;20597;-72
2022/09/11 04:54:20;;;;;;;27.93;24.03;;;13.60;99.90;;;;;;5114785;28;20253;-72
2022/09/11 04:56:47;;;;;;;30.27;24.77;;;13.60;99.90;;;;;;5114631;28;20224;-72
2022/09/11 04:59:16;;;;;;;31.67;24.93;;;13.60;99.90;;;;;;5114764;28;20222;-72
2022/09/11 05:01:45;;;;;;;29.67;22.33;;;13.60;99.90;;;;;;5115013;28;20690;-72
2022/09/11 05:04:12;;;;;;;28.97;22.10;;;13.60;99.90;;;;;;5114607;28;20203;-72
2022/09/11 05:06:39;;;;;;;28.53;22.90;;;13.60;99.90;;;;;;5114765;28;20326;-72
2022/09/11 05:09:09;;;;;;;24.50;20.53;;;13.60;99.90;;;;;;5114484;28;20654;-72
2022/09/11 05:11:37;;;;;;;28.37;23.00;;;13.60;99.90;;;;;;5114698;28;20192;-72
2022/09/11 05:14:03;;;;;;;23.03;19.33;;;13.60;99.90;;;;;;5114363;28;20681;-71
2022/09/11 05:16:33;;;;;;;26.47;21.03;;;13.60;99.90;;;;;;5114074;28;20196;-72
2022/09/11 05:19:02;;;;;;;22.27;19.33;;;13.60;99.90;;;;;;5114510;28;20196;-72
2022/09/11 05:21:30;;;;;;;23.43;18.87;;;13.60;99.90;;;;;;5114364;28;20239;-71
2022/09/11 05:23:59;;;;;;;22.50;18.07;;;13.60;99.90;;;;;;5114168;28;20678;-72
2022/09/11 05:26:28;;;;;;;19.97;16.60;;;13.60;99.90;;;;;;5114022;28;20286;-72
2022/09/11 05:28:55;;;;;;;19.93;17.03;;;13.60;99.90;;;;;;5113952;28;20651;-72
2022/09/11 05:31:24;;;;;;;20.13;16.47;;;13.70;99.90;;;;;;5114153;28;20643;-72
2022/09/11 05:33:51;;;;;;;18.53;16.40;;;13.70;99.90;;;;;;5114132;28;20200;-72
2022/09/11 05:36:19;;;;;;;18.70;16.10;;;13.70;99.90;;;;;;5114022;28;20302;-72
2022/09/11 05:38:46;;;;;;;19.73;16.27;;;13.70;99.90;;;;;;5113934;28;20196;-72
2022/09/11 05:41:13;;;;;;;20.40;16.30;;;13.70;99.90;;;;;;5113863;28;20276;-72
2022/09/11 05:43:41;;;;;;;17.63;15.03;;;13.70;99.90;;;;;;5113773;28;20209;-72
2022/09/11 05:46:11;;;;;;;16.80;15.00;;;13.70;99.90;;;;;;5113823;28;20716;-72
2022/09/11 05:48:38;;;;;;;16.20;14.50;;;13.70;99.90;;;;;;5113910;28;20196;-72
2022/09/11 05:51:08;;;;;;;16.17;13.80;;;13.80;99.90;;;;;;5113706;28;20654;-72
2022/09/11 05:53:36;;;;;;;15.30;13.53;;;13.70;99.90;;;;;;5113616;28;20295;-72
2022/09/11 05:56:07;;;;;;;14.33;12.23;;;13.70;99.90;;;;;;5113477;28;20240;-73
2022/09/11 05:58:34;;;;;;;14.10;12.10;;;13.70;99.90;;;;;;5113908;28;20202;-72
2022/09/11 06:01:04;;;;;;;15.03;12.23;;;13.70;99.90;;;;;;5113698;28;20220;-72
2022/09/11 06:03:32;;;;;;;13.50;12.00;;;13.70;99.90;;;;;;5113661;28;20203;-72
2022/09/11 06:05:59;;;;;;;13.40;12.00;;;13.70;99.90;;;;;;5113545;28;20196;-72
2022/09/11 06:08:26;;;;;;;13.83;12.43;;;13.70;99.90;;;;;;5113466;28;20249;-72
2022/09/11 06:10:54;;;;;;;12.37;10.90;;;13.70;99.90;;;;;;5113398;28;20203;-72
2022/09/11 06:13:21;;;;;;;13.63;12.13;;;13.80;99.90;;;;;;5113625;27;20249;-73
2022/09/11 06:15:48;;;;;;;13.53;11.97;;;13.80;99.90;;;;;;5113358;28;20651;-72
2022/09/11 06:18:15;;;;;;;13.87;12.37;;;13.80;99.90;;;;;;5113456;28;20198;-72
2022/09/11 06:20:42;;;;;;;14.07;12.57;;;13.80;99.90;;;;;;5113250;28;20219;-72
2022/09/11 06:23:10;;;;;;;13.37;11.97;;;13.80;99.90;;;;;;5113165;28;20268;-72
2022/09/11 06:25:37;;;;;;;13.37;11.97;;;13.80;99.90;;;;;;5113485;28;20256;-73
2022/09/11 06:28:05;;;;;;;13.80;12.30;;;13.90;99.90;;;;;;5112716;28;20227;-73
2022/09/11 06:30:33;;;;;;;13.03;11.67;;;13.90;99.90;;;;;;5113274;28;20199;-73
2022/09/11 06:33:00;;;;;;;13.37;12.07;;;14.00;99.90;;;;;;5113247;28;20256;-73
2022/09/11 06:35:27;;;;;;;11.93;10.73;;;14.10;99.90;;;;;;5113068;28;20601;-73
2022/09/11 06:37:53;;;;;;;13.27;11.23;;;14.10;99.90;;;;;;5113024;28;20196;-73
2022/09/11 06:40:20;;;;;;;12.70;11.17;;;14.10;99.90;;;;;;5113255;28;20195;-73
2022/09/11 06:42:47;;;;;;;12.50;10.20;;;14.20;99.90;;;;;;5113004;28;20694;-73
2022/09/11 06:45:16;;;;;;;11.23;10.00;;;14.20;99.90;;;;;;5113028;28;20570;-73
2022/09/11 06:47:43;;;;;;;11.47;10.27;;;14.20;99.90;;;;;;5113070;28;20250;-74
2022/09/11 06:50:10;;;;;;;11.07;9.50;;;14.20;99.90;;;;;;5112954;28;20200;-73
2022/09/11 06:52:37;;;;;;;11.53;9.70;;;14.20;99.90;;;;;;5112843;28;20206;-72
2022/09/11 06:55:04;;;;;;;10.13;9.13;;;14.20;99.90;;;;;;5112862;28;20560;-73
2022/09/11 06:57:31;;;;;;;10.90;9.40;;;14.20;99.90;;;;;;5112826;28;20597;-73
2022/09/11 06:59:58;;;;;;;9.77;8.87;;;14.20;99.90;;;;;;5112874;28;20241;-73
2022/09/11 07:02:25;;;;;;;9.83;8.93;;;14.20;99.90;;;;;;5112785;28;20227;-73
2022/09/11 07:04:52;;;;;;;11.03;9.93;;;14.20;99.90;;;;;;5112551;28;20195;-73
2022/09/11 07:07:19;;;;;;;10.90;9.83;;;14.30;99.90;;;;;;5112935;28;20203;-73
2022/09/11 07:09:46;;;;;;;9.87;8.97;;;14.30;99.90;;;;;;5112919;28;20257;-73
2022/09/11 07:12:12;;;;;;;10.60;9.60;;;14.40;99.90;;;;;;5112812;28;20256;-73
2022/09/11 07:14:40;;;;;;;11.17;9.47;;;14.40;99.90;;;;;;5113108;28;20200;-73
2022/09/11 07:17:06;;;;;;;10.40;9.40;;;14.40;99.90;;;;;;5112747;28;20192;-73
2022/09/11 07:19:34;;;;;;;9.97;9.03;;;14.50;99.90;;;;;;5112590;28;20652;-73
2022/09/11 07:22:01;;;;;;;10.67;9.67;;;14.50;99.90;;;;;;5112524;28;20219;-73
2022/09/11 07:24:28;;;;;;;9.60;8.80;;;14.50;99.90;;;;;;5113723;28;20196;-74
2022/09/11 07:26:54;;;;;;;10.90;8.80;;;14.60;99.90;;;;;;5112923;28;20296;-73
2022/09/11 07:29:21;;;;;;;10.93;8.83;;;14.60;99.90;;;;;;5109604;28;20225;-74
2022/09/11 07:31:49;;;;;;;9.97;8.97;;;14.60;99.90;;;;;;5110235;28;20195;-73
2022/09/11 07:34:15;;;;;;;8.90;8.00;;;14.70;99.90;;;;;;5109929;28;20204;-73
2022/09/11 07:36:44;;;;;;;9.27;8.47;;;14.70;99.90;;;;;;5110241;28;20199;-73
2022/09/11 07:39:11;;;;;;;9.30;8.40;;;14.70;99.90;;;;;;5109773;28;20205;-74
2022/09/11 07:41:37;;;;;;;8.40;7.60;;;14.70;99.90;;;;;;5113595;28;20231;-74
2022/09/11 07:44:05;;;;;;;9.03;8.20;;;14.70;99.90;;;;;;5113722;28;20199;-74
2022/09/11 07:46:32;;;;;;;9.20;8.37;;;14.70;99.90;;;;;;5113604;28;20685;-74
2022/09/11 07:49:00;;;;;;;11.27;9.37;;;14.70;99.90;;;;;;5113801;28;20199;-74
2022/09/11 07:51:27;;;;;;;8.13;7.43;;;14.80;99.90;;;;;;5113379;28;20203;-73
2022/09/11 07:53:58;;;;;;;9.67;8.17;;;14.80;99.90;;;;;;5113922;28;20218;-74
2022/09/11 07:56:26;;;;;;;7.50;6.80;;;15.00;99.90;;;;;;5113536;28;20322;-74
2022/09/11 07:58:54;;;;;;;8.40;7.70;;;15.10;99.90;;;;;;5113294;28;20225;-73
2022/09/11 08:01:23;;;;;;;7.90;7.13;;;15.10;99.90;;;;;;5113608;28;20314;-76
2022/09/11 08:03:54;;;;;;;8.40;7.60;;;15.10;99.90;;;;;;5113223;27;20723;-74
2022/09/11 08:06:22;;;;;;;7.77;7.17;;;15.10;99.90;;;;;;5113533;28;20651;-74
2022/09/11 08:08:52;;;;;;;7.80;7.10;;;15.10;99.90;;;;;;5113339;28;20203;-77
2022/09/11 08:11:20;;;;;;;8.90;8.10;;;15.10;99.90;;;;;;5113396;28;20208;-74
2022/09/11 08:13:49;;;;;;;8.60;7.80;;;15.10;99.90;;;;;;5113099;28;20244;-74
2022/09/11 08:16:16;;;;;;;7.80;7.10;;;15.00;99.90;;;;;;5112991;28;20636;-74
2022/09/11 08:18:44;;;;;;;7.97;7.17;;;15.00;99.90;;;;;;5113343;28;20605;-75
2022/09/11 08:21:11;;;;;;;8.20;7.40;;;15.10;99.90;;;;;;5112801;28;20294;-75
2022/09/11 08:23:40;;;;;;;7.57;6.87;;;15.20;99.90;;;;;;5112816;28;20192;-74
2022/09/11 08:26:08;;;;;;;8.80;7.30;;;15.40;99.90;;;;;;5112789;28;20290;-74
2022/09/11 08:28:38;;;;;;;7.70;7.00;;;15.50;99.90;;;;;;5113000;28;20277;-75
2022/09/11 08:31:06;;;;;;;7.67;6.97;;;15.60;99.90;;;;;;5112553;28;20720;-74
2022/09/11 08:33:33;;;;;;;9.20;6.63;;;15.60;99.90;;;;;;5113030;28;20199;-74
2022/09/11 08:36:01;;;;;;;8.13;7.43;;;15.50;99.90;;;;;;5112412;28;20195;-75
2022/09/11 08:38:28;;;;;;;8.30;7.57;;;15.50;99.90;;;;;;5112642;28;20314;-74
2022/09/11 08:40:57;;;;;;;9.23;8.33;;;15.60;99.90;;;;;;5112185;28;20559;-75
2022/09/11 08:43:29;;;;;;;8.30;7.60;;;15.80;99.90;;;;;;5112780;28;20227;-75
2022/09/11 08:46:08;;;;;;;8.50;7.70;;;15.80;99.90;;;;;;5112469;28;20215;-75
2022/09/11 08:48:44;;;;;;;8.63;7.83;;;16.00;99.90;;;;;;5112486;28;20196;-75
2022/09/11 08:51:15;;;;;;;8.23;7.43;;;16.00;99.90;;;;;;5111460;28;20249;-75
2022/09/11 08:53:44;;;;;;;8.47;7.63;;;15.90;99.90;;;;;;5112318;28;20191;-75
2022/09/11 08:56:16;;;;;;;8.33;7.53;;;16.00;99.90;;;;;;5112064;28;20242;-75
2022/09/11 08:58:49;;;;;;;9.17;8.37;;;16.20;99.90;;;;;;5112241;28;20204;-75
2022/09/11 09:01:23;;;;;;;8.50;7.80;;;16.20;99.90;;;;;;5114569;28;20199;-75
2022/09/11 09:04:13;;;;;;;8.70;7.80;;;16.30;99.90;;;;;;5113355;28;20242;-75
2022/09/11 09:06:51;;;;;;;8.97;8.07;;;16.50;99.90;;;;;;5114514;28;20689;-75
2022/09/11 09:09:28;;;;;;;8.73;7.78;;;16.50;99.90;;;;;;5114409;28;20199;-75
2022/09/11 09:12:01;;;;;;;9.20;8.40;;;16.70;99.90;;;;;;5114345;28;20536;-75
2022/09/11 09:15:02;;;;;;;9.27;8.33;;;16.50;99.90;;;;;;5114648;28;20241;-75
2022/09/11 09:17:36;;;;;;;8.97;8.07;;;16.50;99.90;;;;;;5114366;28;20658;-75
2022/09/11 09:20:09;;;;;;;9.10;8.30;;;16.50;99.90;;;;;;5114399;28;20596;-75
2022/09/11 09:22:44;;;;;;;8.18;7.38;;;16.70;99.90;;;;;;5114287;28;20645;-75
2022/09/11 09:25:13;;;;;;;9.97;8.13;;;16.60;99.90;;;;;;5114578;28;20199;-76
2022/09/11 09:27:44;;;;;;;8.40;7.60;;;16.60;99.90;;;;;;5114413;28;20200;-76
2022/09/11 09:30:16;;;;;;;7.93;7.23;;;16.80;99.90;;;;;;5114274;28;20609;-76
2022/09/11 09:32:51;;;;;;;7.22;6.57;;;16.70;99.90;;;;;;5114188;28;20202;-77
2022/09/11 09:35:22;;;;;;;7.60;6.90;;;17.00;99.90;;;;;;5112566;28;20654;-76
2022/09/11 09:37:49;;;;;;;7.35;6.63;;;16.90;99.90;;;;;;5113860;28;20199;-75
2022/09/11 09:40:18;;;;;;;7.55;6.78;;;16.90;99.90;;;;;;5114305;28;20199;-75
2022/09/11 09:43:02;;;;;;;7.15;6.50;;;17.00;99.90;;;;;;5113874;28;20219;-76
2022/09/11 09:45:51;;;;;;;6.80;6.10;;;16.70;99.90;;;;;;5113825;28;20272;-76
2022/09/11 09:48:19;;;;;;;8.98;8.13;;;16.80;99.90;;;;;;5113618;28;20199;-76
2022/09/11 09:50:47;;;;;;;8.32;7.50;;;16.80;99.90;;;;;;5113694;28;20206;-75
2022/09/11 09:53:19;;;;;;;9.68;8.88;;;16.70;99.90;;;;;;5113452;28;20245;-75
2022/09/11 09:55:47;;;;;;;9.05;8.02;;;16.80;99.90;;;;;;5113361;28;20322;-76
2022/09/11 09:58:14;;;;;;;8.25;7.18;;;16.70;99.90;;;;;;5113615;28;20203;-77
2022/09/11 10:00:41;;;;;;;7.57;6.88;;;17.00;99.90;;;;;;5113573;28;20317;-76
2022/09/11 10:03:27;;;;;;;8.38;7.68;;;17.60;99.90;;;;;;5112736;28;20269;-76
2022/09/11 10:05:56;;;;;;;8.32;7.53;;;17.90;99.90;;;;;;5111458;28;20204;-80
2022/09/11 10:08:30;;;;;;;7.72;7.03;;;18.00;99.90;;;;;;5110727;28;20184;-76
2022/09/11 10:10:58;;;;;;;6.35;5.85;;;18.10;99.90;;;;;;5110848;28;20246;-74
2022/09/11 10:13:27;;;;;;;8.45;7.65;;;18.50;99.90;;;;;;5110794;28;20278;-75
2022/09/11 10:15:56;;;;;;;7.65;6.97;;;18.50;99.90;;;;;;5110713;28;20221;-75
2022/09/11 10:18:42;;;;;;;7.85;7.15;;;18.40;99.90;;;;;;5110099;28;20601;-75
2022/09/11 10:21:21;;;;;;;7.22;6.53;;;18.40;99.90;;;;;;5110048;27;20199;-76
2022/09/11 10:23:51;;;;;;;7.47;6.88;;;18.40;99.90;;;;;;5110645;28;20276;-75
2022/09/11 10:26:21;;;;;;;7.35;6.68;;;18.50;99.90;;;;;;5110603;28;20285;-76
2022/09/11 10:28:48;;;;;;;9.18;8.30;;;18.50;99.90;;;;;;5110485;28;20200;-75
2022/09/11 10:31:17;;;;;;;8.93;8.02;;;18.40;99.90;;;;;;5110706;28;20203;-77
2022/09/11 10:33:51;;;;;;;8.93;8.13;;;18.40;99.90;;;;;;5110707;28;20199;-75
2022/09/11 10:36:23;;;;;;;7.78;7.07;;;18.40;99.90;;;;;;5110343;28;20199;-75
2022/09/11 10:38:50;;;;;;;8.52;7.75;;;18.30;99.90;;;;;;5110642;28;20308;-75
2022/09/11 10:41:20;;;;;;;8.20;7.50;;;18.30;99.90;;;;;;5110176;28;20195;-75
2022/09/11 10:43:52;;;;;;;7.93;7.22;;;17.80;99.90;;;;;;5110531;28;20639;-75
2022/09/11 10:46:24;;;;;;;8.93;8.13;;;17.70;99.90;;;;;;5111883;28;20328;-75
2022/09/11 10:48:54;;;;;;;10.93;9.98;;;17.30;99.90;;;;;;5113132;28;20221;-73
2022/09/11 10:51:22;;;;;;;11.07;9.98;;;16.80;99.90;;;;;;5113071;28;20202;-74
2022/09/11 10:54:02;;;;;;;11.32;10.32;;;16.50;99.90;;;;;;5112942;28;20723;-73
2022/09/11 10:56:29;;;;;;;12.40;11.33;;;16.40;99.90;;;;;;5112721;28;20223;-74
2022/09/11 10:59:03;;;;;;;13.97;12.40;;;16.50;99.90;;;;;;5113005;28;20224;-74
2022/09/11 11:01:29;;;;;;;12.77;11.57;;;16.60;99.90;;;;;;5112990;28;20281;-74
2022/09/11 11:03:57;;;;;;;13.80;12.50;;;16.70;99.90;;;;;;5112835;28;20235;-74
2022/09/11 11:06:42;;;;;;;14.15;12.15;;;16.90;99.90;;;;;;5112650;28;20640;-74
2022/09/11 11:09:32;;;;;;;13.93;12.55;;;17.30;99.90;;;;;;5113029;28;20196;-74
2022/09/11 11:12:12;;;;;;;12.45;11.32;;;17.60;99.90;;;;;;5109445;28;20191;-75
2022/09/11 11:15:09;;;;;;;11.52;10.43;;;17.80;99.90;;;;;;5113516;28;20649;-74
2022/09/11 11:17:44;;;;;;;11.77;10.55;;;18.40;99.90;;;;;;5115884;28;20200;-76
2022/09/11 11:20:23;;;;;;;10.68;9.52;;;18.60;99.90;;;;;;5116574;28;20595;-75
2022/09/11 11:23:17;;;;;;;11.00;10.00;;;19.20;99.90;;;;;;5116641;28;20219;-75
2022/09/11 11:25:53;;;;;;;9.60;8.80;;;20.00;99.90;;;;;;5086672;28;20202;-77
2022/09/11 11:28:33;;;;;;;9.90;8.95;;;21.50;99.90;;;;;;5117009;28;20196;-75
2022/09/11 11:31:14;;;;;;;8.45;7.65;;;21.60;99.90;;;;;;5116533;28;20195;-75
2022/09/11 11:33:55;;;;;;;8.02;7.32;;;22.00;99.90;;;;;;5116320;28;20203;-75
2022/09/11 11:36:30;;;;;;;8.05;7.35;;;21.50;99.90;;;;;;5116489;28;20245;-76
2022/09/11 11:39:00;;;;;;;8.60;7.70;;;21.70;99.90;;;;;;5116301;28;20203;-75
2022/09/11 11:41:31;;;;;;;7.45;6.85;;;22.70;99.90;;;;;;5116409;28;20206;-75
2022/09/11 11:44:02;;;;;;;7.07;6.45;;;23.40;99.90;;;;;;5116210;28;20219;-75
2022/09/11 11:46:37;;;;;;;7.13;6.60;;;23.60;99.90;;;;;;5116263;28;20257;-75
2022/09/11 11:49:08;;;;;;;7.70;7.00;;;22.90;99.90;;;;;;5116215;28;20192;-76
2022/09/11 11:51:47;;;;;;;5.93;5.43;;;22.40;99.90;;;;;;5116034;28;20191;-76
2022/09/11 11:54:19;;;;;;;6.22;5.72;;;24.10;99.90;;;;;;5115955;28;20199;-74
2022/09/11 11:56:50;;;;;;;6.05;5.50;;;24.50;99.90;;;;;;5115750;28;20296;-76
2022/09/11 11:59:22;;;;;;;6.32;5.82;;;24.10;99.90;;;;;;5115950;28;20207;-75
2022/09/11 12:01:58;;;;;;;6.47;5.72;;;22.90;99.90;;;;;;5115619;28;20191;-75
2022/09/11 12:04:35;;;;;;;6.40;5.80;;;22.40;99.90;;;;;;5115558;28;20227;-75
2022/09/11 12:07:05;;;;;;;5.93;5.38;;;22.30;99.90;;;;;;5115574;28;20715;-75
2022/09/11 12:09:32;;;;;;;5.53;4.60;;;22.30;99.90;;;;;;5115995;28;20199;-74
2022/09/11 12:12:05;;;;;;;6.03;5.47;;;21.90;99.90;;;;;;5115516;28;20222;-75
2022/09/11 12:14:33;;;;;;;6.07;5.43;;;21.30;99.90;;;;;;5115528;28;20204;-76
2022/09/11 12:17:17;;;;;;;5.97;5.47;;;20.90;99.90;;;;;;5115262;28;20205;-75
2022/09/11 12:20:16;;;;;;;6.53;6.03;;;20.90;99.90;;;;;;5115488;28;20196;-75
2022/09/11 12:22:45;;;;;;;6.13;5.43;;;20.40;99.90;;;;;;5115298;28;20318;-76
2022/09/11 12:25:45;;;;;;;6.80;6.05;;;20.80;99.90;;;;;;5115153;28;20623;-75
2022/09/11 12:28:22;;;;;;;6.15;5.60;;;20.40;99.90;;;;;;5114817;28;20225;-75
2022/09/11 12:31:05;;;;;;;6.82;6.22;;;21.10;99.90;;;;;;5115383;28;20195;-76
2022/09/11 12:33:53;;;;;;;6.25;5.63;;;22.10;99.90;;;;;;5115047;28;20196;-75
2022/09/11 12:36:25;;;;;;;6.97;6.28;;;23.10;99.90;;;;;;5114965;28;20196;-75
2022/09/11 12:38:56;;;;;;;6.00;5.50;;;23.30;99.90;;;;;;5115090;28;20195;-75
2022/09/11 12:41:26;;;;;;;5.78;5.25;;;22.90;99.90;;;;;;5115124;28;20191;-75
2022/09/11 12:43:53;;;;;;;5.13;4.72;;;22.40;99.90;;;;;;5114969;28;20227;-76
2022/09/11 12:47:11;;;;;;;4.88;4.47;;;21.90;99.90;;;;;;5114773;28;20195;-75
2022/09/11 12:49:39;;;;;;;4.70;4.28;;;24.70;99.90;;;;;;5032078;28;20205;-77
2022/09/11 12:52:17;;;;;;;4.20;3.90;;;24.40;99.90;;;;;;5032111;28;20252;-75
2022/09/11 12:54:45;;;;;;;3.55;3.22;;;25.00;99.90;;;;;;5086287;27;20528;-75
2022/09/11 12:57:19;;;;;;;6.50;3.40;;;24.30;99.90;;;;;;5115121;28;20200;-74